createdAt,value
2018-09-19T00:00:16.103Z,99806.64
2018-09-19T00:02:45.147Z,99810.87
2018-09-19T00:05:18.467Z,99801.23
2018-09-19T00:07:50.527Z,99796.44
2018-09-19T00:10:19.968Z,99806.02
2018-09-19T00:12:55.346Z,99806.97
2018-09-19T00:15:26.071Z,99800.93
2018-09-19T00:17:57.991Z,99801.31
2018-09-19T00:20:26.977Z,99800.93
2018-09-19T00:23:02.287Z,99799.80
2018-09-19T00:25:32.445Z,99791.56
2018-09-19T00:28:05.627Z,99799.88
2018-09-19T00:30:36.387Z,99788.80
2018-09-19T00:33:07.268Z,99786.62
2018-09-19T00:35:36.473Z,99786.13
2018-09-19T00:38:08.265Z,99777.04
2018-09-19T00:40:41.375Z,99775.77
2018-09-19T00:43:12.545Z,99779.83
2018-09-19T00:45:46.606Z,99774.58
2018-09-19T00:48:15.586Z,99782.94
2018-09-19T00:50:44.660Z,99783.41
2018-09-19T00:53:13.947Z,99782.78
2018-09-19T00:55:44.694Z,99778.87
2018-09-19T00:58:15.786Z,99777.23
2018-09-19T01:00:49.594Z,99784.98
2018-09-19T01:03:20.986Z,99781.33
2018-09-19T01:08:26.444Z,99771.91
2018-09-19T01:10:57.218Z,99775.75
2018-09-19T01:13:26.215Z,99773.51
2018-09-19T01:15:57.419Z,99766.07
2018-09-19T01:18:26.488Z,99763.70
2018-09-19T01:20:55.533Z,99763.80
2018-09-19T01:23:27.639Z,99763.28
2018-09-19T01:25:56.668Z,99757.84
2018-09-19T01:28:27.371Z,99751.64
2018-09-19T01:30:58.211Z,99754.16
2018-09-19T01:33:28.386Z,99751.38
2018-09-19T01:36:00.089Z,99743.20
2018-09-19T01:38:30.313Z,99743.06
2018-09-19T01:40:59.416Z,99752.66
2018-09-19T01:43:31.244Z,99750.17
2018-09-19T01:46:00.886Z,99741.11
2018-09-19T01:48:30.907Z,99746.73
2018-09-19T01:51:01.211Z,99745.35
2018-09-19T01:53:30.260Z,99744.25
2018-09-19T01:56:05.972Z,99742.34
2018-09-19T01:58:35.030Z,99743.50
2018-09-19T02:01:06.399Z,99743.84
2018-09-19T02:03:40.480Z,99744.25
2018-09-19T02:06:15.497Z,99748.87
2018-09-19T02:08:48.147Z,99751.52
2018-09-19T02:11:22.236Z,99752.28
2018-09-19T02:13:52.426Z,99751.84
2018-09-19T02:16:25.917Z,99751.01
2018-09-19T02:18:55.102Z,99748.30
2018-09-19T02:21:24.255Z,99761.45
2018-09-19T02:23:56.723Z,99763.21
2018-09-19T02:26:26.210Z,99763.59
2018-09-19T02:28:57.331Z,99760.50
2018-09-19T02:31:27.558Z,99768.40
2018-09-19T02:33:56.850Z,99765.56
2018-09-19T02:36:27.051Z,99756.61
2018-09-19T02:38:57.564Z,99762.91
2018-09-19T02:41:27.532Z,99762.45
2018-09-19T02:43:59.186Z,99748.30
2018-09-19T02:46:28.284Z,99755.00
2018-09-19T02:48:57.360Z,99751.98
2018-09-19T02:51:26.391Z,99753.73
2018-09-19T02:54:00.065Z,99752.75
2018-09-19T02:56:29.910Z,99753.20
2018-09-19T02:58:58.938Z,99749.72
2018-09-19T03:01:31.088Z,99751.13
2018-09-19T03:04:00.155Z,99757.78
2018-09-19T03:06:29.389Z,99758.33
2018-09-19T03:09:00.579Z,99763.27
2018-09-19T03:11:30.399Z,99758.14
2018-09-19T03:14:03.672Z,99760.43
2018-09-19T03:16:33.386Z,99764.68
2018-09-19T03:19:07.345Z,99761.89
2018-09-19T03:21:40.648Z,99763.94
2018-09-19T03:24:11.565Z,99771.04
2018-09-19T03:26:45.130Z,99766.68
2018-09-19T03:29:15.399Z,99768.45
2018-09-19T03:31:44.481Z,99770.11
2018-09-19T03:36:46.695Z,99766.53
2018-09-19T03:39:22.293Z,99762.28
2018-09-19T03:44:25.548Z,99769.05
2018-09-19T03:46:57.753Z,99766.08
2018-09-19T03:49:30.660Z,99764.27
2018-09-19T03:52:07.607Z,99763.64
2018-09-19T03:54:37.587Z,99762.88
2018-09-19T03:57:07.599Z,99773.25
2018-09-19T03:59:36.650Z,99769.39
2018-09-19T04:02:06.079Z,99766.09
2018-09-19T04:04:35.462Z,99776.94
2018-09-19T04:07:05.515Z,99769.84
2018-09-19T04:09:35.937Z,99773.81
2018-09-19T04:12:06.165Z,99767.56
2018-09-19T04:14:39.269Z,99772.33
2018-09-19T04:17:12.960Z,99778.52
2018-09-19T04:19:42.003Z,99775.57
2018-09-19T04:22:11.065Z,99775.63
2018-09-19T04:24:52.358Z,99776.16
2018-09-19T04:27:21.414Z,99771.45
2018-09-19T04:29:50.855Z,99771.39
2018-09-19T04:32:25.342Z,99770.72
2018-09-19T04:34:54.857Z,99782.20
2018-09-19T04:37:23.907Z,99789.80
2018-09-19T04:39:56.204Z,99792.11
2018-09-19T04:42:25.814Z,99796.88
2018-09-19T04:44:54.982Z,99800.83
2018-09-19T04:47:24.872Z,99797.32
2018-09-19T04:50:01.099Z,99801.69
2018-09-19T04:52:30.272Z,99802.55
2018-09-19T04:54:59.401Z,99805.51
2018-09-19T04:57:36.310Z,99802.67
2018-09-19T05:00:05.512Z,99804.62
2018-09-19T05:02:34.660Z,99805.20
2018-09-19T05:05:07.733Z,99809.45
2018-09-19T05:07:40.065Z,99805.35
2018-09-19T05:10:09.381Z,99806.22
2018-09-19T05:12:42.739Z,99804.67
2018-09-19T05:15:12.342Z,99808.56
2018-09-19T05:17:41.685Z,99806.70
2018-09-19T05:20:11.182Z,99800.91
2018-09-19T05:22:40.967Z,99806.86
2018-09-19T05:25:18.352Z,99805.23
2018-09-19T05:27:48.877Z,99800.37
2018-09-19T05:30:21.994Z,99803.03
2018-09-19T05:32:51.061Z,99801.70
2018-09-19T05:35:20.035Z,99799.66
2018-09-19T05:37:49.335Z,99802.34
2018-09-19T05:42:52.499Z,99809.34
2018-09-19T05:45:27.985Z,99805.66
2018-09-19T05:47:57.069Z,99816.91
2018-09-19T05:50:26.127Z,99811.91
2018-09-19T05:52:56.612Z,99813.72
2018-09-19T05:55:27.439Z,99812.22
2018-09-19T05:58:00.758Z,99826.91
2018-09-19T06:00:35.571Z,99825.13
2018-09-19T06:03:05.676Z,99822.77
2018-09-19T06:05:34.849Z,99828.71
2018-09-19T06:08:04.219Z,99824.05
2018-09-19T06:10:33.366Z,99830.50
2018-09-19T06:13:03.076Z,99837.37
2018-09-19T06:15:32.285Z,99837.59
2018-09-19T06:18:01.334Z,99828.56
2018-09-19T06:20:31.220Z,99832.68
2018-09-19T06:23:04.366Z,99834.48
2018-09-19T06:25:38.753Z,99834.66
2018-09-19T06:28:08.480Z,99837.74
2018-09-19T06:30:37.668Z,99835.95
2018-09-19T06:33:07.068Z,99837.92
2018-09-19T06:35:37.024Z,99844.62
2018-09-19T06:38:09.614Z,99847.23
2018-09-19T06:40:39.531Z,99849.92
2018-09-19T06:43:11.528Z,99834.64
2018-09-19T06:45:42.543Z,99849.25
2018-09-19T06:48:11.621Z,99849.81
2018-09-19T06:50:46.830Z,99846.70
2018-09-19T06:53:15.977Z,99844.78
2018-09-19T06:55:49.326Z,99848.86
2018-09-19T06:58:18.456Z,99852.21
2018-09-19T07:00:47.691Z,99851.16
2018-09-19T07:03:16.875Z,99852.87
2018-09-19T07:05:46.659Z,99851.13
2018-09-19T07:08:16.668Z,99850.33
2018-09-19T07:10:45.788Z,99843.13
2018-09-19T07:13:16.726Z,99851.11
2018-09-19T07:18:30.845Z,99846.55
2018-09-19T07:21:00.041Z,99844.30
2018-09-19T07:26:03.883Z,99850.44
2018-09-19T07:28:32.923Z,99844.89
2018-09-19T07:31:02.095Z,99842.84
2018-09-19T07:33:31.352Z,99839.22
2018-09-19T07:36:00.405Z,99842.16
2018-09-19T07:38:29.749Z,99843.48
2018-09-19T07:40:58.833Z,99845.05
2018-09-19T07:43:27.905Z,99846.23
2018-09-19T07:45:59.821Z,99852.64
2018-09-19T07:48:34.907Z,99844.39
2018-09-19T07:51:04.341Z,99840.81
2018-09-19T07:53:33.976Z,99846.37
2018-09-19T07:56:03.511Z,99840.47
2018-09-19T07:58:32.964Z,99836.13
2018-09-19T08:01:07.339Z,99831.88
2018-09-19T08:03:36.672Z,99834.27
2018-09-19T08:06:05.891Z,99839.23
2018-09-19T08:08:37.575Z,99827.22
2018-09-19T08:11:08.579Z,99831.38
2018-09-19T08:13:40.080Z,99832.54
2018-09-19T08:16:11.112Z,99824.88
2018-09-19T08:18:40.144Z,99820.77
2018-09-19T08:23:47.198Z,99816.63
2018-09-19T08:26:24.236Z,99818.31
2018-09-19T08:28:54.791Z,99813.76
2018-09-19T08:31:24.046Z,99812.08
2018-09-19T08:33:53.941Z,99810.81
2018-09-19T08:36:22.975Z,99806.75
2018-09-19T08:38:54.759Z,99804.98
2018-09-19T08:41:28.373Z,99800.30
2018-09-19T08:43:58.031Z,99795.50
2018-09-19T08:46:27.645Z,99798.45
2018-09-19T08:48:57.770Z,99794.13
2018-09-19T08:51:27.768Z,99794.09
2018-09-19T08:54:00.192Z,99793.06
2018-09-19T08:56:30.698Z,99785.59
2018-09-19T08:59:00.751Z,99787.41
2018-09-19T09:04:06.778Z,99785.63
2018-09-19T09:06:39.320Z,99781.56
2018-09-19T09:09:09.324Z,99772.33
2018-09-19T09:11:38.641Z,99774.09
2018-09-19T09:14:13.934Z,99760.38
2018-09-19T09:16:45.109Z,99766.68
2018-09-19T09:19:15.379Z,99762.50
2018-09-19T09:21:45.244Z,99769.36
2018-09-19T09:24:16.524Z,99772.45
2018-09-19T09:26:45.606Z,99765.99
2018-09-19T09:29:16.356Z,99760.02
2018-09-19T09:31:46.245Z,99753.88
2018-09-19T09:34:16.128Z,99759.59
2018-09-19T09:36:46.023Z,99760.03
2018-09-19T09:39:18.320Z,99750.44
2018-09-19T09:41:50.072Z,99752.11
2018-09-19T09:44:23.491Z,99747.73
2018-09-19T09:46:53.360Z,99753.91
2018-09-19T09:49:22.746Z,99751.55
2018-09-19T09:51:53.377Z,99749.80
2018-09-19T09:54:26.793Z,99741.17
2018-09-19T09:56:59.559Z,99743.32
2018-09-19T09:59:29.531Z,99739.13
2018-09-19T10:01:58.524Z,99735.83
2018-09-19T10:04:28.517Z,99731.70
2018-09-19T10:06:57.697Z,99738.28
2018-09-19T10:09:34.607Z,99730.57
2018-09-19T10:12:05.226Z,99731.38
2018-09-19T10:14:40.210Z,99726.75
2018-09-19T10:17:09.545Z,99728.66
2018-09-19T10:19:40.063Z,99723.72
2018-09-19T10:22:09.125Z,99721.77
2018-09-19T10:24:44.718Z,99724.09
2018-09-19T10:27:24.565Z,99723.16
2018-09-19T10:29:53.973Z,99718.61
2018-09-19T10:32:30.745Z,99729.89
2018-09-19T10:35:01.780Z,99722.41
2018-09-19T10:37:35.922Z,99719.19
2018-09-19T10:42:40.668Z,99718.75
2018-09-19T10:45:10.383Z,99705.86
2018-09-19T10:47:39.307Z,99695.06
2018-09-19T10:50:08.702Z,99688.27
2018-09-19T10:55:16.164Z,99684.94
2018-09-19T10:57:47.428Z,99684.36
2018-09-19T11:00:17.010Z,99687.84
2018-09-19T11:02:47.037Z,99679.86
2018-09-19T11:05:18.352Z,99672.67
2018-09-19T11:07:47.257Z,99677.41
2018-09-19T11:10:16.232Z,99663.54
2018-09-19T11:12:45.147Z,99668.14
2018-09-19T11:15:13.950Z,99667.15
2018-09-19T11:17:42.798Z,99659.50
2018-09-19T11:20:11.937Z,99660.30
2018-09-19T11:22:40.760Z,99656.98
2018-09-19T11:25:09.618Z,99661.11
2018-09-19T11:27:38.476Z,99657.75
2018-09-19T11:30:07.483Z,99663.31
2018-09-19T11:32:36.332Z,99657.00
2018-09-19T11:35:05.583Z,99648.97
2018-09-19T11:37:34.414Z,99655.08
2018-09-19T11:40:03.256Z,99653.41
2018-09-19T11:42:32.101Z,99645.98
2018-09-19T11:45:00.877Z,99637.55
2018-09-19T11:47:29.767Z,99640.14
2018-09-19T11:49:58.905Z,99637.34
2018-09-19T11:52:27.781Z,99633.30
2018-09-19T11:54:56.576Z,99632.16
2018-09-19T11:57:25.441Z,99626.08
2018-09-19T11:59:54.403Z,99625.27
2018-09-19T12:02:24.639Z,99624.45
2018-09-19T12:04:55.701Z,99617.78
2018-09-19T12:07:25.227Z,99628.89
2018-09-19T12:09:54.133Z,99620.60
2018-09-19T12:12:23.578Z,99615.62
2018-09-19T12:14:53.047Z,99604.62
2018-09-19T12:17:22.418Z,99611.78
2018-09-19T12:19:52.571Z,99596.00
2018-09-19T12:22:21.420Z,99597.35
2018-09-19T12:24:50.343Z,99597.82
2018-09-19T12:27:19.694Z,99598.80
2018-09-19T12:29:48.564Z,99601.24
2018-09-19T12:32:19.313Z,99594.38
2018-09-19T12:34:48.197Z,99594.39
2018-09-19T12:37:17.128Z,99584.45
2018-09-19T12:39:46.003Z,99577.00
2018-09-19T12:42:15.186Z,99574.46
2018-09-19T12:44:43.967Z,99570.61
2018-09-19T12:47:12.760Z,99578.62
2018-09-19T12:49:42.598Z,99569.00
2018-09-19T12:52:11.473Z,99565.05
2018-09-19T12:54:40.349Z,99562.06
2018-09-19T12:57:09.557Z,99562.84
2018-09-19T12:59:38.507Z,99567.86
2018-09-19T13:02:08.753Z,99570.62
2018-09-19T13:04:39.386Z,99562.39
2018-09-19T13:07:09.050Z,99552.89
2018-09-19T13:09:37.983Z,99563.12
2018-09-19T13:12:07.798Z,99554.88
2018-09-19T13:14:36.685Z,99549.34
2018-09-19T13:17:05.554Z,99552.44
2018-09-19T13:19:34.462Z,99555.82
2018-09-19T13:22:04.175Z,99545.70
2018-09-19T13:24:35.628Z,99548.84
2018-09-19T13:27:05.698Z,99548.28
2018-09-19T13:29:35.532Z,99538.98
2018-09-19T13:32:04.394Z,99537.31
2018-09-19T13:34:34.288Z,99537.47
2018-09-19T13:37:04.755Z,99530.81
2018-09-19T13:39:37.082Z,99523.94
2018-09-19T13:42:06.638Z,99522.84
2018-09-19T13:44:36.544Z,99520.31
2018-09-19T13:47:05.668Z,99522.10
2018-09-19T13:49:43.065Z,99520.83
2018-09-19T13:52:13.726Z,99513.27
2018-09-19T13:54:42.630Z,99509.41
2018-09-19T13:57:12.760Z,99510.91
2018-09-19T13:59:42.958Z,99505.70
2018-09-19T14:02:11.887Z,99510.08
2018-09-19T14:04:40.835Z,99504.19
2018-09-19T14:07:09.730Z,99519.28
2018-09-19T14:09:39.197Z,99508.58
2018-09-19T14:12:09.544Z,99504.98
2018-09-19T14:14:39.122Z,99508.33
2018-09-19T14:17:11.123Z,99508.23
2018-09-19T14:19:39.987Z,99494.23
2018-09-19T14:22:09.467Z,99507.67
2018-09-19T14:24:48.603Z,99498.02
2018-09-19T14:27:19.578Z,99503.28
2018-09-19T14:29:50.959Z,99502.75
2018-09-19T14:32:22.745Z,99498.57
2018-09-19T14:34:57.480Z,99495.83
2018-09-19T14:37:34.075Z,99500.16
2018-09-19T14:42:42.185Z,99489.94
2018-09-19T14:45:17.358Z,99496.57
2018-09-19T14:47:53.734Z,99482.50
2018-09-19T14:50:26.859Z,99485.30
2018-09-19T14:52:55.962Z,99485.33
2018-09-19T14:55:26.237Z,99493.52
2018-09-19T14:57:55.869Z,99487.95
2018-09-19T15:00:31.316Z,99486.27
2018-09-19T15:03:04.021Z,99486.01
2018-09-19T15:05:38.103Z,99489.08
2018-09-19T15:08:15.024Z,99488.75
2018-09-19T15:10:47.498Z,99483.27
2018-09-19T15:13:21.368Z,99488.52
2018-09-19T15:15:50.939Z,99485.81
2018-09-19T15:18:20.571Z,99496.01
2018-09-19T15:20:50.566Z,99487.74
2018-09-19T15:23:23.818Z,99492.63
2018-09-19T15:25:53.215Z,99488.81
2018-09-19T15:28:22.517Z,99493.14
2018-09-19T15:30:52.076Z,99494.50
2018-09-19T15:33:25.532Z,99491.52
2018-09-19T15:35:56.604Z,99495.62
2018-09-19T15:38:27.899Z,99494.25
2018-09-19T15:41:01.860Z,99496.76
2018-09-19T15:43:30.931Z,99488.75
2018-09-19T15:46:02.096Z,99496.41
2018-09-19T15:48:32.301Z,99492.53
2018-09-19T15:51:02.552Z,99492.23
2018-09-19T15:53:32.915Z,99488.05
2018-09-19T15:56:03.568Z,99485.55
2018-09-19T15:58:32.920Z,99485.29
2018-09-19T16:01:02.256Z,99483.59
2018-09-19T16:03:35.814Z,99489.35
2018-09-19T16:06:04.967Z,99486.51
2018-09-19T16:08:39.578Z,99488.63
2018-09-19T16:11:08.904Z,99483.34
2018-09-19T16:13:38.655Z,99488.77
2018-09-19T16:16:09.462Z,99486.77
2018-09-19T16:18:38.620Z,99485.34
2018-09-19T16:21:07.747Z,99490.80
2018-09-19T16:23:37.962Z,99492.85
2018-09-19T16:26:07.634Z,99491.38
2018-09-19T16:28:37.892Z,99488.46
2018-09-19T16:31:10.899Z,99494.84
2018-09-19T16:33:41.068Z,99492.64
2018-09-19T16:36:10.487Z,99496.55
2018-09-19T16:38:40.131Z,99498.66
2018-09-19T16:41:10.014Z,99500.45
2018-09-19T16:43:39.866Z,99496.42
2018-09-19T16:46:08.994Z,99495.50
2018-09-19T16:48:38.047Z,99494.23
2018-09-19T16:51:08.295Z,99507.27
2018-09-19T16:53:37.474Z,99503.63
2018-09-19T16:56:06.922Z,99504.93
2018-09-19T16:58:38.461Z,99509.17
2018-09-19T17:01:07.539Z,99509.27
2018-09-19T17:03:36.555Z,99518.67
2018-09-19T17:06:13.902Z,99523.64
2018-09-19T17:08:50.849Z,99527.48
2018-09-19T17:11:25.376Z,99529.71
2018-09-19T17:13:55.326Z,99528.30
2018-09-19T17:16:29.306Z,99527.82
2018-09-19T17:19:00.327Z,99529.23
2018-09-19T17:21:29.494Z,99531.96
2018-09-19T17:24:04.970Z,99527.67
2018-09-19T17:26:34.095Z,99535.00
2018-09-19T17:29:03.336Z,99533.73
2018-09-19T17:34:12.708Z,99541.11
2018-09-19T17:36:41.813Z,99525.80
2018-09-19T17:39:12.706Z,99545.44
2018-09-19T17:41:43.281Z,99546.73
2018-09-19T17:44:14.959Z,99542.63
2018-09-19T17:46:48.007Z,99546.36
2018-09-19T17:49:19.095Z,99550.93
2018-09-19T17:51:49.327Z,99554.49
2018-09-19T17:54:19.717Z,99551.95
2018-09-19T17:56:49.019Z,99561.89
2018-09-19T17:59:26.111Z,99569.45
2018-09-19T18:01:57.400Z,99577.45
2018-09-19T18:04:26.509Z,99581.44
2018-09-19T18:06:57.343Z,99584.51
2018-09-19T18:09:27.154Z,99588.72
2018-09-19T18:11:58.006Z,99596.20
2018-09-19T18:14:27.180Z,99607.78
2018-09-19T18:16:57.476Z,99606.11
2018-09-19T18:19:26.934Z,99613.63
2018-09-19T18:21:56.841Z,99616.38
2018-09-19T18:24:30.122Z,99619.08
2018-09-19T18:27:00.896Z,99614.22
2018-09-19T18:29:34.606Z,99609.74
2018-09-19T18:32:05.834Z,99613.95
2018-09-19T18:34:37.613Z,99611.77
2018-09-19T18:37:13.210Z,99614.24
2018-09-19T18:39:43.987Z,99612.54
2018-09-19T18:42:17.894Z,99613.53
2018-09-19T18:44:47.327Z,99622.98
2018-09-19T18:47:21.587Z,99622.11
2018-09-19T18:49:57.089Z,99617.52
2018-09-19T18:52:26.768Z,99622.45
2018-09-19T18:54:57.774Z,99626.77
2018-09-19T18:57:28.120Z,99630.67
2018-09-19T18:59:57.930Z,99631.34
2018-09-19T19:02:29.707Z,99629.34
2018-09-19T19:04:59.950Z,99627.34
2018-09-19T19:07:33.200Z,99634.67
2018-09-19T19:10:06.156Z,99627.78
2018-09-19T19:12:44.444Z,99631.05
2018-09-19T19:15:18.399Z,99624.95
2018-09-19T19:20:30.902Z,99631.34
2018-09-19T19:23:01.138Z,99630.96
2018-09-19T19:25:30.284Z,99627.53
2018-09-19T19:27:59.397Z,99625.39
2018-09-19T19:30:33.617Z,99630.00
2018-09-19T19:33:04.178Z,99630.55
2018-09-19T19:35:34.177Z,99629.14
2018-09-19T19:38:03.440Z,99628.31
2018-09-19T19:40:32.925Z,99626.30
2018-09-19T19:43:04.676Z,99636.80
2018-09-19T19:45:37.645Z,99635.22
2018-09-19T19:48:14.723Z,99638.54
2018-09-19T19:50:43.798Z,99643.89
2018-09-19T19:53:12.949Z,99637.48
2018-09-19T19:55:44.836Z,99643.50
2018-09-19T19:58:15.991Z,99637.87
2018-09-19T20:00:45.451Z,99639.39
2018-09-19T20:03:15.413Z,99643.69
2018-09-19T20:05:46.374Z,99640.52
2018-09-19T20:08:19.380Z,99643.11
2018-09-19T20:10:52.727Z,99646.14
2018-09-19T20:13:26.532Z,99647.36
2018-09-19T20:15:55.712Z,99645.25
2018-09-19T20:18:30.521Z,99647.44
2018-09-19T20:20:59.621Z,99652.89
2018-09-19T20:23:30.401Z,99649.43
2018-09-19T20:25:59.576Z,99652.65
2018-09-19T20:28:32.291Z,99658.16
2018-09-19T20:31:02.408Z,99661.18
2018-09-19T20:33:32.062Z,99655.61
2018-09-19T20:36:01.120Z,99659.59
2018-09-19T20:38:32.405Z,99661.61
2018-09-19T20:41:02.708Z,99665.03
2018-09-19T20:43:31.874Z,99658.52
2018-09-19T20:46:01.142Z,99659.26
2018-09-19T20:48:33.343Z,99666.78
2018-09-19T20:51:03.993Z,99670.16
2018-09-19T20:53:33.105Z,99675.11
2018-09-19T20:56:02.521Z,99675.82
2018-09-19T20:58:34.571Z,99676.50
2018-09-19T21:01:04.958Z,99675.05
2018-09-19T21:03:34.003Z,99679.13
2018-09-19T21:06:03.380Z,99679.20
2018-09-19T21:08:33.009Z,99682.89
2018-09-19T21:11:06.382Z,99680.54
2018-09-19T21:13:35.492Z,99678.28
2018-09-19T21:16:04.654Z,99676.19
2018-09-19T21:18:35.890Z,99677.29
2018-09-19T21:21:05.213Z,99672.77
2018-09-19T21:23:34.332Z,99677.33
2018-09-19T21:26:03.681Z,99683.63
2018-09-19T21:28:33.146Z,99686.26
2018-09-19T21:31:02.202Z,99681.67
2018-09-19T21:33:33.898Z,99679.68
2018-09-19T21:36:08.497Z,99680.21
2018-09-19T21:38:38.841Z,99674.52
2018-09-19T21:41:08.033Z,99679.31
2018-09-19T21:43:38.755Z,99680.10
2018-09-19T21:46:14.451Z,99674.52
2018-09-19T21:48:44.312Z,99682.77
2018-09-19T21:51:13.658Z,99681.86
2018-09-19T21:53:44.208Z,99675.64
2018-09-19T21:56:13.958Z,99672.86
2018-09-19T21:58:43.591Z,99678.65
2018-09-19T22:01:14.522Z,99677.12
2018-09-19T22:03:48.549Z,99675.66
2018-09-19T22:06:18.423Z,99675.46
2018-09-19T22:08:47.473Z,99670.92
2018-09-19T22:11:17.009Z,99671.48
2018-09-19T22:13:46.052Z,99677.95
2018-09-19T22:16:15.019Z,99673.35
2018-09-19T22:18:44.334Z,99679.47
2018-09-19T22:21:16.270Z,99679.11
2018-09-19T22:23:47.895Z,99682.36
2018-09-19T22:26:17.173Z,99685.70
2018-09-19T22:28:46.212Z,99683.19
2018-09-19T22:31:16.792Z,99683.42
2018-09-19T22:33:47.659Z,99686.04
2018-09-19T22:36:16.755Z,99679.75
2018-09-19T22:38:50.610Z,99678.52
2018-09-19T22:41:21.513Z,99680.61
2018-09-19T22:43:51.041Z,99680.37
2018-09-19T22:46:20.191Z,99674.64
2018-09-19T22:48:51.411Z,99671.39
2018-09-19T22:51:21.329Z,99673.28
2018-09-19T22:56:24.797Z,99680.37
2018-09-19T22:58:53.908Z,99676.39
2018-09-19T23:01:22.970Z,99673.14
2018-09-19T23:03:56.243Z,99671.48
2018-09-19T23:06:25.299Z,99673.95
2018-09-19T23:08:54.352Z,99670.51
2018-09-19T23:11:23.865Z,99667.69
2018-09-19T23:13:58.107Z,99662.54
2018-09-19T23:16:27.151Z,99668.39
2018-09-19T23:19:01.140Z,99660.20
2018-09-19T23:21:33.953Z,99666.16
2018-09-19T23:24:02.999Z,99667.16
2018-09-19T23:26:32.082Z,99665.13
2018-09-19T23:29:05.733Z,99662.63
2018-09-19T23:31:38.706Z,99664.70
2018-09-19T23:34:08.070Z,99658.44
2018-09-19T23:36:37.967Z,99657.51
2018-09-19T23:39:09.721Z,99653.73
2018-09-19T23:41:38.859Z,99658.14
2018-09-19T23:44:12.590Z,99654.56
2018-09-19T23:46:42.582Z,99651.02
2018-09-19T23:49:11.686Z,99653.52
2018-09-19T23:51:40.808Z,99647.06
2018-09-19T23:54:09.873Z,99648.95
2018-09-19T23:56:38.873Z,99644.64
2018-09-19T23:59:08.621Z,99642.99
